createdAt,value
2022-12-18T00:00:33.296Z,7.75
2022-12-18T00:02:59.884Z,7.75
2022-12-18T00:05:26.077Z,7.67
2022-12-18T00:07:52.407Z,7.67
2022-12-18T00:10:18.779Z,7.66
2022-12-18T00:12:45.162Z,7.59
2022-12-18T00:15:11.516Z,7.60
2022-12-18T00:17:38.062Z,7.56
2022-12-18T00:20:04.381Z,7.53
2022-12-18T00:22:30.771Z,7.48
2022-12-18T00:24:57.082Z,7.45
2022-12-18T00:27:23.426Z,7.41
2022-12-18T00:29:49.782Z,7.38
2022-12-18T00:32:16.161Z,7.40
2022-12-18T00:34:42.488Z,7.48
2022-12-18T00:37:08.868Z,7.51
2022-12-18T00:39:35.186Z,7.37
2022-12-18T00:42:01.533Z,7.27
2022-12-18T00:44:27.924Z,7.34
2022-12-18T00:46:54.292Z,7.31
2022-12-18T00:49:20.644Z,7.27
2022-12-18T00:51:47.045Z,7.24
2022-12-18T00:54:13.408Z,7.21
2022-12-18T00:56:48.326Z,7.21
2022-12-18T00:59:06.063Z,7.16
2022-12-18T01:01:32.577Z,7.21
2022-12-18T01:03:58.841Z,7.22
2022-12-18T01:06:25.185Z,7.13
2022-12-18T01:08:51.505Z,7.07
2022-12-18T01:11:17.875Z,7.03
2022-12-18T01:13:44.231Z,7.10
2022-12-18T01:16:10.713Z,7.01
2022-12-18T01:18:36.923Z,6.98
2022-12-18T01:21:03.302Z,6.85
2022-12-18T01:23:29.729Z,6.86
2022-12-18T01:25:56.141Z,6.83
2022-12-18T01:28:22.443Z,6.77
2022-12-18T01:30:48.822Z,6.77
2022-12-18T01:33:15.146Z,6.82
2022-12-18T01:35:41.493Z,6.81
2022-12-18T01:38:07.860Z,6.78
2022-12-18T01:40:34.218Z,6.73
2022-12-18T01:43:00.600Z,6.67
2022-12-18T01:45:26.969Z,6.56
2022-12-18T01:47:53.333Z,6.51
2022-12-18T01:50:19.931Z,6.45
2022-12-18T01:52:46.193Z,6.44
2022-12-18T01:55:12.507Z,6.41
2022-12-18T01:57:38.920Z,6.40
2022-12-18T02:00:05.227Z,6.39
2022-12-18T02:02:31.691Z,6.43
2022-12-18T02:04:57.956Z,6.41
2022-12-18T02:07:24.286Z,6.37
2022-12-18T02:09:50.617Z,6.42
2022-12-18T02:12:17.021Z,6.39
2022-12-18T02:14:43.414Z,6.39
2022-12-18T02:17:09.747Z,6.35
2022-12-18T02:19:36.171Z,6.31
2022-12-18T02:22:02.462Z,6.32
2022-12-18T02:24:28.779Z,6.37
2022-12-18T02:26:55.167Z,6.28
2022-12-18T02:29:21.460Z,6.32
2022-12-18T02:31:47.845Z,6.23
2022-12-18T02:34:14.233Z,6.20
2022-12-18T02:36:40.534Z,6.22
2022-12-18T02:39:06.887Z,6.18
2022-12-18T02:41:33.268Z,6.11
2022-12-18T02:43:59.622Z,6.10
2022-12-18T02:46:26.128Z,6.10
2022-12-18T02:48:52.413Z,6.04
2022-12-18T02:51:18.771Z,5.99
2022-12-18T02:53:45.091Z,5.95
2022-12-18T02:56:11.434Z,5.92
2022-12-18T02:58:37.795Z,5.91
2022-12-18T03:01:04.149Z,5.90
2022-12-18T03:03:30.537Z,5.89
2022-12-18T03:05:56.880Z,5.85
2022-12-18T03:08:23.306Z,5.80
2022-12-18T03:10:49.620Z,5.76
2022-12-18T03:13:15.975Z,5.79
2022-12-18T03:15:42.356Z,5.79
2022-12-18T03:18:08.709Z,5.82
2022-12-18T03:20:35.079Z,5.84
2022-12-18T03:23:01.438Z,5.86
2022-12-18T03:25:27.769Z,5.91
2022-12-18T03:27:54.149Z,5.88
2022-12-18T03:30:20.500Z,5.91
2022-12-18T03:32:46.854Z,5.87
2022-12-18T03:35:13.209Z,5.85
2022-12-18T03:37:39.528Z,5.84
2022-12-18T03:40:05.870Z,5.87
2022-12-18T03:42:32.264Z,5.87
2022-12-18T03:44:58.602Z,5.89
2022-12-18T03:47:24.985Z,5.88
2022-12-18T03:49:51.331Z,5.88
2022-12-18T03:52:17.710Z,5.84
2022-12-18T03:54:44.056Z,5.82
2022-12-18T03:57:10.464Z,5.81
2022-12-18T03:59:36.786Z,5.78
2022-12-18T04:02:03.281Z,5.74
2022-12-18T04:04:29.486Z,5.72
2022-12-18T04:06:55.879Z,5.65
2022-12-18T04:09:22.391Z,5.68
2022-12-18T04:11:48.779Z,5.64
2022-12-18T04:14:17.874Z,5.64
2022-12-18T04:16:41.463Z,5.61
2022-12-18T04:19:07.840Z,5.62
2022-12-18T04:21:34.196Z,5.64
2022-12-18T04:24:00.576Z,5.62
2022-12-18T04:26:26.931Z,5.65
2022-12-18T04:28:53.319Z,5.65
2022-12-18T04:31:19.690Z,5.65
2022-12-18T04:33:46.046Z,5.65
2022-12-18T04:36:12.440Z,5.58
2022-12-18T04:38:38.823Z,5.54
2022-12-18T04:41:05.173Z,5.52
2022-12-18T04:43:31.563Z,5.56
2022-12-18T04:45:57.944Z,5.55
2022-12-18T04:48:24.257Z,5.49
2022-12-18T04:50:50.577Z,5.52
2022-12-18T04:53:16.959Z,5.47
2022-12-18T04:55:43.272Z,5.46
2022-12-18T04:58:09.618Z,5.46
2022-12-18T05:00:35.967Z,5.46
2022-12-18T05:03:02.419Z,5.50
2022-12-18T05:05:28.727Z,5.36
2022-12-18T05:07:55.104Z,5.30
2022-12-18T05:10:21.490Z,5.28
2022-12-18T05:12:47.839Z,5.30
2022-12-18T05:15:14.197Z,5.25
2022-12-18T05:17:40.568Z,5.26
2022-12-18T05:20:06.930Z,5.27
2022-12-18T05:22:33.401Z,5.24
2022-12-18T05:24:59.711Z,5.29
2022-12-18T05:27:26.045Z,5.26
2022-12-18T05:29:52.375Z,5.24
2022-12-18T05:32:18.826Z,5.22
2022-12-18T05:34:45.122Z,5.19
2022-12-18T05:37:11.488Z,5.22
2022-12-18T05:39:37.867Z,5.21
2022-12-18T05:42:04.248Z,5.22
2022-12-18T05:44:30.567Z,5.23
2022-12-18T05:46:56.964Z,5.21
2022-12-18T05:49:23.235Z,5.21
2022-12-18T05:51:49.615Z,5.18
2022-12-18T05:54:15.972Z,5.16
2022-12-18T05:56:48.358Z,5.15
2022-12-18T05:59:08.702Z,5.12
2022-12-18T06:01:35.227Z,5.09
2022-12-18T06:04:01.568Z,5.01
2022-12-18T06:06:27.822Z,5.06
2022-12-18T06:08:54.213Z,5.05
2022-12-18T06:11:20.614Z,5.00
2022-12-18T06:13:46.966Z,5.03
2022-12-18T06:16:13.336Z,5.06
2022-12-18T06:18:39.676Z,5.09
2022-12-18T06:21:06.087Z,5.09
2022-12-18T06:23:32.402Z,5.07
2022-12-18T06:25:58.789Z,5.09
2022-12-18T06:28:25.140Z,5.07
2022-12-18T06:30:51.530Z,5.05
2022-12-18T06:33:17.882Z,5.10
2022-12-18T06:35:44.255Z,5.11
2022-12-18T06:38:10.567Z,5.07
2022-12-18T06:40:36.945Z,5.10
2022-12-18T06:43:03.337Z,5.08
2022-12-18T06:45:29.821Z,5.06
2022-12-18T06:47:56.116Z,5.07
2022-12-18T06:50:22.531Z,5.09
2022-12-18T06:52:48.911Z,5.12
2022-12-18T06:55:15.902Z,5.18
2022-12-18T06:57:42.255Z,5.23
2022-12-18T07:00:08.591Z,5.24
2022-12-18T07:02:35.031Z,5.32
2022-12-18T07:05:04.723Z,5.32
2022-12-18T07:07:27.655Z,5.31
2022-12-18T07:09:54.144Z,5.30
2022-12-18T07:12:20.423Z,5.24
2022-12-18T07:14:46.998Z,5.30
2022-12-18T07:17:13.388Z,5.27
